Terminal Aerodrome Forecast
Issued by NWS

Home | Current Version | Previous Version | Text Only | Print | Product List | Glossary On
Versions: 1 2 3 4 5 6 7 8 9 10 11 12
000
FTAK31 PANC 042332
TAFAHO
TAF
PAHO 042332Z 0500/0524 10008KT P6SM VCSH SCT040 BKN060
     FM050600 05004KT P6SM SCT060 BKN100
     FM051800 06011KT P6SM SCT040 OVC070
     FM052200 06015G22KT 6SM -RA SCT025 OVC040=

USA.gov is the U.S. government's official web portal to all federal, state and local government web resources and services.